Time;durP1;ratioP1;P1;durP2;ratioP2;P2;SDS_P1;SDS_P2;PMS_P1;PMS_P2;Temp;Humidity;BMP_temperature;BMP_pressure;BME280_temperature;BME280_humidity;BME280_pressure;Samples;Min_cycle;Max_cycle;Signal;HPM_P1;HPM_P2
2022/07/17 00:01:04;;;;;;;8.05;4.25;;;16.20;70.20;;;;;;5063351;28;20125;-70
2022/07/17 00:03:30;;;;;;;9.95;4.93;;;16.10;70.30;;;;;;5062954;28;20028;-71
2022/07/17 00:05:55;;;;;;;8.93;4.10;;;16.10;70.50;;;;;;5062327;28;20044;-71
2022/07/17 00:08:21;;;;;;;9.65;4.65;;;16.10;70.60;;;;;;5064202;28;20044;-70
2022/07/17 00:10:46;;;;;;;8.63;5.03;;;16.10;70.60;;;;;;5061725;28;20048;-70
2022/07/17 00:13:12;;;;;;;9.40;4.85;;;16.10;70.70;;;;;;5061456;28;20055;-70
2022/07/17 00:15:38;;;;;;;10.23;5.22;;;16.00;70.90;;;;;;5062768;28;20109;-70
2022/07/17 00:18:06;;;;;;;8.23;4.30;;;16.00;71.10;;;;;;5061851;28;20135;-70
2022/07/17 00:20:32;;;;;;;8.45;4.88;;;15.90;71.20;;;;;;5062185;28;20071;-70
2022/07/17 00:22:57;;;;;;;7.68;4.20;;;15.90;71.30;;;;;;5058176;28;20115;-70
2022/07/17 00:25:24;;;;;;;8.60;4.80;;;15.90;71.30;;;;;;5062686;28;20475;-70
2022/07/17 00:27:49;;;;;;;9.60;4.72;;;15.90;71.00;;;;;;5064152;28;20020;-69
2022/07/17 00:30:16;;;;;;;9.30;4.68;;;15.90;71.30;;;;;;5062975;28;20089;-70
2022/07/17 00:32:42;;;;;;;8.38;4.55;;;15.80;71.40;;;;;;5063055;28;20039;-70
2022/07/17 00:35:08;;;;;;;8.75;5.13;;;15.80;71.40;;;;;;5064782;28;20040;-70
2022/07/17 00:37:41;;;;;;;6.97;4.45;;;15.70;71.20;;;;;;5063447;28;20040;-70
2022/07/17 00:40:08;;;;;;;8.55;4.63;;;15.70;71.20;;;;;;5052228;28;20067;-70
2022/07/17 00:42:34;;;;;;;9.20;4.97;;;15.70;71.20;;;;;;5059410;28;20388;-70
2022/07/17 00:45:00;;;;;;;10.85;5.00;;;15.60;71.20;;;;;;5062743;28;20032;-71
2022/07/17 00:47:25;;;;;;;9.05;4.63;;;15.60;71.30;;;;;;5060410;28;20025;-70
2022/07/17 00:49:51;;;;;;;8.73;4.80;;;15.60;71.40;;;;;;5062687;28;20526;-70
2022/07/17 00:52:17;;;;;;;10.55;5.15;;;15.60;71.50;;;;;;5059418;28;20044;-70
2022/07/17 00:54:45;;;;;;;8.57;4.80;;;15.60;71.30;;;;;;5054582;28;20048;-70
2022/07/17 00:57:14;;;;;;;10.00;5.72;;;15.60;71.30;;;;;;5060505;28;20036;-71
2022/07/17 00:59:41;;;;;;;8.00;5.00;;;15.40;71.50;;;;;;5062456;28;20545;-70
2022/07/17 01:02:10;;;;;;;7.82;4.78;;;15.40;71.70;;;;;;5062139;28;20064;-71
2022/07/17 01:04:36;;;;;;;10.00;5.18;;;15.30;72.20;;;;;;5058348;28;20049;-71
2022/07/17 01:07:04;;;;;;;10.27;5.60;;;15.20;72.40;;;;;;5057330;28;20032;-71
2022/07/17 01:09:31;;;;;;;8.35;4.55;;;15.20;72.60;;;;;;5058914;28;20492;-70
2022/07/17 01:11:57;;;;;;;13.30;5.13;;;15.20;72.80;;;;;;5059887;28;20043;-71
2022/07/17 01:14:25;;;;;;;10.40;5.40;;;15.10;72.80;;;;;;5062313;28;20044;-71
2022/07/17 01:16:52;;;;;;;9.40;5.50;;;15.10;72.90;;;;;;5061688;28;20494;-70
2022/07/17 01:19:18;;;;;;;9.95;5.60;;;15.00;73.10;;;;;;5066824;28;20123;-70
2022/07/17 01:21:46;;;;;;;9.98;5.57;;;15.00;73.10;;;;;;5067852;28;20044;-70
2022/07/17 01:24:12;;;;;;;9.38;5.38;;;15.00;73.30;;;;;;5063427;28;20032;-70
2022/07/17 01:26:43;;;;;;;11.07;5.55;;;14.90;73.40;;;;;;5066842;28;20406;-70
2022/07/17 01:29:10;;;;;;;8.95;5.63;;;14.90;73.40;;;;;;5067632;28;20437;-70
2022/07/17 01:31:37;;;;;;;9.60;5.88;;;14.80;73.60;;;;;;5068780;28;20101;-71
2022/07/17 01:34:05;;;;;;;9.77;6.40;;;14.80;73.80;;;;;;5063205;28;20505;-70
2022/07/17 01:36:31;;;;;;;10.68;6.35;;;14.80;74.00;;;;;;5064797;28;20063;-71
2022/07/17 01:38:57;;;;;;;10.40;6.85;;;14.80;74.10;;;;;;5068288;28;20028;-70
2022/07/17 01:41:23;;;;;;;10.85;6.10;;;14.80;74.20;;;;;;5067578;28;20048;-70
2022/07/17 01:43:48;;;;;;;11.00;6.03;;;14.80;74.20;;;;;;5068122;28;20394;-71
2022/07/17 01:46:14;;;;;;;12.77;6.47;;;14.80;74.10;;;;;;5067471;28;20535;-71
2022/07/17 01:48:40;;;;;;;9.27;6.15;;;14.70;74.10;;;;;;5071538;28;20055;-71
2022/07/17 01:51:05;;;;;;;9.30;6.25;;;14.70;74.20;;;;;;5064920;28;20048;-71
2022/07/17 01:53:31;;;;;;;13.75;6.25;;;14.60;74.20;;;;;;5068254;28;20553;-70
2022/07/17 01:55:57;;;;;;;11.68;6.55;;;14.60;74.40;;;;;;5064638;28;20079;-71
2022/07/17 01:58:23;;;;;;;13.05;6.45;;;14.60;74.20;;;;;;5067748;28;20035;-70
2022/07/17 02:00:48;;;;;;;10.40;6.30;;;14.60;74.30;;;;;;5067637;28;20064;-70
2022/07/17 02:03:14;;;;;;;9.82;5.70;;;14.50;74.30;;;;;;5066382;28;20036;-70
2022/07/17 02:05:40;;;;;;;11.50;6.60;;;14.50;74.30;;;;;;5069321;28;20456;-71
2022/07/17 02:08:05;;;;;;;10.40;5.80;;;14.50;74.40;;;;;;5066226;28;20128;-71
2022/07/17 02:10:31;;;;;;;14.50;5.63;;;14.40;74.50;;;;;;5067686;28;20054;-71
2022/07/17 02:12:57;;;;;;;9.40;5.88;;;14.30;74.60;;;;;;5066929;28;20071;-70
2022/07/17 02:15:24;;;;;;;11.52;5.22;;;14.20;75.10;;;;;;5066743;28;20133;-70
2022/07/17 02:17:49;;;;;;;11.18;5.43;;;14.10;75.40;;;;;;5067476;28;20127;-71
2022/07/17 02:20:15;;;;;;;9.30;5.18;;;14.10;75.60;;;;;;5068650;28;20209;-70
2022/07/17 02:22:41;;;;;;;11.02;5.72;;;14.10;75.80;;;;;;5065612;28;20029;-70
2022/07/17 02:25:08;;;;;;;10.65;5.68;;;14.00;76.20;;;;;;5065397;28;20120;-71
2022/07/17 02:27:34;;;;;;;9.55;5.38;;;14.00;76.50;;;;;;5066388;28;20021;-70
2022/07/17 02:30:11;;;;;;;8.88;5.35;;;13.90;76.70;;;;;;5064893;28;20467;-70
2022/07/17 02:32:36;;;;;;;11.77;5.57;;;13.90;76.60;;;;;;5062518;28;20036;-71
2022/07/17 02:35:03;;;;;;;11.18;5.38;;;13.90;76.70;;;;;;5063335;28;20047;-72
2022/07/17 02:37:31;;;;;;;8.32;5.35;;;14.00;76.60;;;;;;5063070;28;20131;-70
2022/07/17 02:39:58;;;;;;;11.25;5.32;;;14.10;76.30;;;;;;5061650;28;20028;-70
2022/07/17 02:42:27;;;;;;;8.95;4.50;;;14.10;76.10;;;;;;5063890;28;20036;-70
2022/07/17 02:44:53;;;;;;;9.05;5.25;;;14.10;76.00;;;;;;5063795;28;20033;-70
2022/07/17 02:47:27;;;;;;;8.98;4.90;;;14.10;75.90;;;;;;5063565;28;20045;-70
2022/07/17 02:49:52;;;;;;;8.53;4.90;;;14.10;75.90;;;;;;5064725;28;20037;-70
2022/07/17 02:52:19;;;;;;;7.85;5.00;;;14.10;76.00;;;;;;5057246;28;20058;-70
2022/07/17 02:54:45;;;;;;;11.40;5.35;;;14.10;75.90;;;;;;5063855;28;20322;-70
2022/07/17 02:57:11;;;;;;;10.77;5.50;;;14.10;75.70;;;;;;5066712;28;20060;-70
2022/07/17 02:59:37;;;;;;;10.15;5.10;;;14.10;75.80;;;;;;5064543;28;20497;-70
2022/07/17 03:02:03;;;;;;;9.13;5.03;;;14.10;75.80;;;;;;5063134;28;20453;-70
2022/07/17 03:04:28;;;;;;;10.25;5.18;;;14.10;75.70;;;;;;5063265;28;20036;-70
2022/07/17 03:06:54;;;;;;;8.55;5.63;;;14.10;75.80;;;;;;5061491;28;20033;-70
2022/07/17 03:09:19;;;;;;;8.95;5.47;;;14.00;75.90;;;;;;5063202;28;20068;-70
2022/07/17 03:11:45;;;;;;;10.45;5.93;;;14.00;76.10;;;;;;5063850;28;20071;-70
2022/07/17 03:14:11;;;;;;;10.32;6.05;;;14.00;76.30;;;;;;5063793;28;20048;-70
2022/07/17 03:16:36;;;;;;;9.73;5.20;;;14.10;76.30;;;;;;5063109;28;20085;-70
2022/07/17 03:19:02;;;;;;;10.60;5.45;;;13.90;76.60;;;;;;5060189;28;20399;-70
2022/07/17 03:21:28;;;;;;;9.35;5.80;;;14.00;76.80;;;;;;5064029;28;20032;-70
2022/07/17 03:23:54;;;;;;;10.20;6.03;;;14.00;76.80;;;;;;5064224;28;20560;-70
2022/07/17 03:26:19;;;;;;;9.77;6.00;;;14.00;77.00;;;;;;5062939;28;20082;-70
2022/07/17 03:28:45;;;;;;;9.50;5.88;;;13.90;77.50;;;;;;5061911;28;20044;-70
2022/07/17 03:31:11;;;;;;;10.75;6.18;;;13.80;77.70;;;;;;5063328;28;20123;-70
2022/07/17 03:33:36;;;;;;;9.85;6.38;;;13.80;77.90;;;;;;5063747;28;20539;-70
2022/07/17 03:36:02;;;;;;;9.63;5.70;;;13.80;77.90;;;;;;5058785;28;20472;-71
2022/07/17 03:38:28;;;;;;;10.05;5.97;;;13.80;77.80;;;;;;5060743;28;20045;-70
2022/07/17 03:40:54;;;;;;;12.57;7.00;;;13.80;77.60;;;;;;5062350;28;20972;-70
2022/07/17 03:43:19;;;;;;;11.80;6.97;;;13.60;78.40;;;;;;5063075;28;21243;-70
2022/07/17 03:45:45;;;;;;;14.25;6.40;;;13.60;78.70;;;;;;5062542;28;20443;-70
2022/07/17 03:48:11;;;;;;;10.30;6.45;;;13.50;79.10;;;;;;5063035;28;20041;-70
2022/07/17 03:50:36;;;;;;;11.45;7.45;;;13.50;79.40;;;;;;5063788;28;20032;-70
2022/07/17 03:53:02;;;;;;;10.68;6.13;;;13.60;79.50;;;;;;5063013;28;20468;-70
2022/07/17 03:55:28;;;;;;;12.40;7.32;;;13.60;79.50;;;;;;5063458;28;20045;-70
2022/07/17 03:57:54;;;;;;;9.68;6.22;;;13.60;79.20;;;;;;5063284;28;20114;-71
2022/07/17 04:00:20;;;;;;;10.15;6.35;;;13.70;78.90;;;;;;5063703;28;20521;-69
2022/07/17 04:02:46;;;;;;;9.88;5.68;;;13.70;78.70;;;;;;5060306;28;20699;-69
2022/07/17 04:05:12;;;;;;;10.85;6.75;;;13.60;78.60;;;;;;5060697;28;20041;-69
2022/07/17 04:07:39;;;;;;;10.82;7.05;;;13.70;78.50;;;;;;5061145;28;20352;-70
2022/07/17 04:10:06;;;;;;;12.05;6.20;;;13.80;78.50;;;;;;5059759;28;20048;-70
2022/07/17 04:12:32;;;;;;;9.50;6.80;;;13.80;78.30;;;;;;5061595;28;20040;-70
2022/07/17 04:14:57;;;;;;;10.98;6.70;;;13.80;78.30;;;;;;5062203;28;20044;-70
2022/07/17 04:17:23;;;;;;;12.05;7.30;;;13.90;78.20;;;;;;5062377;28;20525;-70
2022/07/17 04:19:49;;;;;;;11.07;6.40;;;13.90;78.00;;;;;;5062676;28;20032;-70
2022/07/17 04:22:15;;;;;;;10.55;6.68;;;13.90;77.90;;;;;;5062859;28;20044;-70
2022/07/17 04:24:41;;;;;;;10.15;6.43;;;14.00;77.60;;;;;;5057398;28;20045;-70
2022/07/17 04:27:08;;;;;;;10.45;6.10;;;14.00;77.30;;;;;;5062737;28;20060;-70
2022/07/17 04:29:34;;;;;;;9.25;6.40;;;14.00;77.00;;;;;;5061869;28;20419;-70
2022/07/17 04:32:00;;;;;;;8.77;6.10;;;14.10;77.00;;;;;;5062850;28;20416;-70
2022/07/17 04:34:26;;;;;;;10.57;6.35;;;14.10;76.90;;;;;;5062467;28;20143;-70
2022/07/17 04:36:52;;;;;;;10.98;6.15;;;14.10;76.60;;;;;;5062219;28;20032;-70
2022/07/17 04:39:18;;;;;;;18.25;7.10;;;14.10;76.40;;;;;;5058874;28;20041;-70
2022/07/17 04:41:43;;;;;;;11.43;6.18;;;14.20;76.20;;;;;;5060825;28;20450;-70
2022/07/17 04:44:09;;;;;;;10.48;6.15;;;14.20;76.30;;;;;;5062975;28;20086;-70
2022/07/17 04:46:35;;;;;;;11.18;6.38;;;14.30;76.30;;;;;;5059669;28;20036;-70
2022/07/17 04:49:00;;;;;;;11.15;6.50;;;14.40;76.10;;;;;;5061405;28;20040;-71
2022/07/17 04:51:26;;;;;;;9.77;6.45;;;14.40;75.60;;;;;;5061982;28;20495;-70
2022/07/17 04:53:52;;;;;;;12.77;6.93;;;14.50;75.70;;;;;;5058168;28;20048;-70
2022/07/17 04:56:17;;;;;;;11.07;6.30;;;14.40;75.80;;;;;;5061868;28;20932;-70
2022/07/17 04:58:43;;;;;;;9.52;6.28;;;14.20;76.50;;;;;;5062738;28;20119;-70
2022/07/17 05:01:08;;;;;;;13.98;6.60;;;14.20;76.70;;;;;;5061673;28;20037;-70
2022/07/17 05:03:34;;;;;;;14.88;6.55;;;14.40;76.40;;;;;;5059209;28;20545;-70
2022/07/17 05:06:00;;;;;;;15.85;6.20;;;14.30;76.40;;;;;;5059089;28;20056;-70
2022/07/17 05:08:25;;;;;;;16.85;7.15;;;14.50;76.60;;;;;;5061777;28;20197;-70
2022/07/17 05:10:51;;;;;;;15.13;6.43;;;14.50;75.90;;;;;;5062300;28;20044;-69
2022/07/17 05:13:17;;;;;;;9.77;6.60;;;14.60;76.00;;;;;;5062367;28;20036;-70
2022/07/17 05:15:42;;;;;;;9.88;6.50;;;14.60;75.70;;;;;;5062002;28;20126;-71
2022/07/17 05:18:08;;;;;;;12.32;6.88;;;14.80;75.50;;;;;;5061404;28;20038;-71
2022/07/17 05:20:34;;;;;;;13.07;8.05;;;14.80;75.10;;;;;;5061407;28;20044;-70
2022/07/17 05:23:00;;;;;;;11.35;6.78;;;14.80;75.30;;;;;;5062229;28;20413;-70
2022/07/17 05:25:25;;;;;;;13.60;7.60;;;14.90;75.40;;;;;;5061496;28;20134;-70
2022/07/17 05:27:51;;;;;;;11.40;6.10;;;15.00;75.10;;;;;;5062069;28;20522;-70
2022/07/17 05:30:17;;;;;;;11.85;6.03;;;16.10;73.70;;;;;;5059720;28;20044;-70
2022/07/17 05:32:42;;;;;;;10.20;5.68;;;17.20;68.40;;;;;;5058740;28;20052;-69
2022/07/17 05:35:08;;;;;;;9.60;5.32;;;18.10;65.00;;;;;;5061543;28;20428;-70
2022/07/17 05:37:34;;;;;;;11.10;5.38;;;19.00;62.70;;;;;;5060644;28;20024;-70
2022/07/17 05:40:00;;;;;;;11.02;4.65;;;19.40;60.50;;;;;;5061025;28;20048;-70
2022/07/17 05:42:25;;;;;;;9.85;4.78;;;20.20;58.50;;;;;;5060792;28;20040;-70
2022/07/17 05:44:51;;;;;;;8.70;4.22;;;20.60;56.00;;;;;;5061483;28;20123;-70
2022/07/17 05:47:16;;;;;;;13.00;5.15;;;21.30;54.90;;;;;;5062475;28;20068;-70
2022/07/17 05:49:42;;;;;;;12.40;4.50;;;21.80;52.60;;;;;;5061143;28;20029;-70
2022/07/17 05:52:08;;;;;;;8.80;4.88;;;22.00;52.40;;;;;;5059835;28;20081;-70
2022/07/17 05:54:34;;;;;;;7.30;4.05;;;22.10;52.30;;;;;;5061535;28;20471;-70
2022/07/17 05:57:00;;;;;;;10.30;4.68;;;22.10;52.30;;;;;;5060661;28;20036;-70
2022/07/17 05:59:26;;;;;;;8.60;4.60;;;21.80;51.00;;;;;;5059309;28;20476;-70
2022/07/17 06:01:52;;;;;;;8.82;4.93;;;21.30;53.80;;;;;;5061658;28;20077;-71
2022/07/17 06:04:17;;;;;;;11.07;5.07;;;21.10;54.10;;;;;;5062580;28;20118;-70
2022/07/17 06:06:43;;;;;;;10.80;5.53;;;20.10;57.30;;;;;;5060141;28;20045;-70
2022/07/17 06:09:09;;;;;;;9.45;5.18;;;19.00;60.10;;;;;;5063197;28;20420;-70
2022/07/17 06:11:34;;;;;;;10.13;5.55;;;18.60;62.80;;;;;;5065124;28;20064;-71
2022/07/17 06:14:00;;;;;;;12.43;6.80;;;18.10;64.10;;;;;;5064075;28;20032;-71
2022/07/17 06:16:26;;;;;;;10.82;6.47;;;17.60;66.10;;;;;;5064890;28;20120;-70
2022/07/17 06:18:51;;;;;;;9.88;6.05;;;17.70;66.80;;;;;;5060999;28;20483;-70
2022/07/17 06:21:17;;;;;;;10.60;5.70;;;17.60;67.80;;;;;;5065994;28;20036;-70
2022/07/17 06:23:43;;;;;;;12.82;5.60;;;17.70;66.80;;;;;;5063744;28;20033;-70
2022/07/17 06:26:08;;;;;;;8.82;6.00;;;17.80;67.00;;;;;;5062689;28;20102;-70
2022/07/17 06:28:34;;;;;;;11.95;5.90;;;18.10;66.30;;;;;;5063560;28;20037;-70
2022/07/17 06:31:00;;;;;;;13.65;5.93;;;18.20;65.10;;;;;;5065068;28;20547;-70
2022/07/17 06:33:26;;;;;;;9.30;5.68;;;18.30;65.40;;;;;;5064793;28;20101;-70
2022/07/17 06:35:52;;;;;;;8.75;5.25;;;18.50;65.10;;;;;;5064257;28;20707;-70
2022/07/17 06:38:17;;;;;;;11.38;5.57;;;18.50;63.30;;;;;;5064108;28;20580;-71
2022/07/17 06:40:43;;;;;;;9.70;5.30;;;18.50;64.20;;;;;;5058440;28;20040;-70
2022/07/17 06:43:09;;;;;;;10.68;5.70;;;18.60;64.50;;;;;;5064740;28;20510;-70
2022/07/17 06:45:34;;;;;;;9.93;5.82;;;18.60;64.80;;;;;;5064552;28;20051;-70
2022/07/17 06:48:00;;;;;;;11.40;5.60;;;18.80;64.90;;;;;;5063842;28;20052;-70
2022/07/17 06:50:26;;;;;;;12.35;5.60;;;19.10;63.90;;;;;;5065077;28;20479;-70
2022/07/17 06:52:52;;;;;;;12.95;5.15;;;19.20;62.90;;;;;;5064452;28;20031;-70
2022/07/17 06:55:17;;;;;;;12.20;4.97;;;19.40;62.40;;;;;;5065166;28;20410;-70
2022/07/17 06:57:43;;;;;;;10.93;4.38;;;19.20;61.30;;;;;;5063268;28;20035;-70
2022/07/17 07:00:09;;;;;;;9.15;4.05;;;19.50;61.10;;;;;;5064380;28;20045;-69
2022/07/17 07:02:35;;;;;;;10.45;5.28;;;19.40;61.00;;;;;;5064106;28;20032;-69
2022/07/17 07:05:01;;;;;;;11.13;4.80;;;19.40;60.80;;;;;;5060824;28;20028;-70
2022/07/17 07:07:27;;;;;;;14.23;6.97;;;19.70;61.70;;;;;;5064060;28;20043;-70
2022/07/17 07:09:52;;;;;;;11.20;5.72;;;19.90;60.80;;;;;;5062239;28;20040;-70
2022/07/17 07:12:18;;;;;;;9.43;4.60;;;20.10;60.30;;;;;;5064311;28;20036;-70
2022/07/17 07:14:43;;;;;;;12.43;5.93;;;20.10;59.20;;;;;;5064112;28;20086;-70
2022/07/17 07:17:09;;;;;;;13.73;6.18;;;20.10;59.10;;;;;;5060906;28;20074;-71
2022/07/17 07:19:35;;;;;;;12.15;5.60;;;20.10;58.60;;;;;;5062749;28;20409;-71
2022/07/17 07:22:01;;;;;;;10.43;5.18;;;20.10;59.10;;;;;;5060030;28;20075;-72
2022/07/17 07:24:26;;;;;;;9.20;3.90;;;20.30;58.80;;;;;;5060288;28;20039;-74
2022/07/17 07:26:52;;;;;;;10.27;4.05;;;20.80;61.40;;;;;;5059437;28;20039;-73
2022/07/17 07:29:17;;;;;;;10.82;3.25;;;21.20;56.80;;;;;;5056985;28;20383;-75
2022/07/17 07:31:43;;;;;;;11.00;3.97;;;21.50;56.40;;;;;;5056916;28;20487;-74
2022/07/17 07:34:09;;;;;;;11.02;3.78;;;21.40;54.80;;;;;;5060351;28;20028;-74
2022/07/17 07:36:35;;;;;;;10.90;3.53;;;21.20;57.50;;;;;;5060211;28;20044;-74
2022/07/17 07:39:00;;;;;;;8.88;3.80;;;21.30;57.80;;;;;;5059262;28;20045;-74
2022/07/17 07:41:26;;;;;;;9.52;4.28;;;21.10;55.20;;;;;;5059705;28;20465;-74
2022/07/17 07:43:52;;;;;;;12.07;6.63;;;20.80;57.50;;;;;;5059243;28;20040;-73
2022/07/17 07:46:17;;;;;;;13.48;6.85;;;21.10;56.00;;;;;;5059903;28;20045;-74
2022/07/17 07:48:43;;;;;;;8.35;3.63;;;21.40;55.40;;;;;;5061584;28;20033;-74
2022/07/17 07:51:08;;;;;;;10.13;3.85;;;21.70;54.10;;;;;;5057743;28;20462;-74
2022/07/17 07:53:34;;;;;;;8.60;2.95;;;21.60;53.50;;;;;;5057033;28;20032;-74
2022/07/17 07:56:00;;;;;;;11.00;3.72;;;21.80;54.00;;;;;;5058275;28;20040;-74
2022/07/17 07:58:26;;;;;;;9.57;3.10;;;22.00;52.90;;;;;;5063025;28;20082;-74
2022/07/17 08:00:51;;;;;;;8.05;2.80;;;21.90;53.80;;;;;;5062538;28;20094;-74
2022/07/17 08:03:17;;;;;;;8.00;2.72;;;22.30;52.30;;;;;;5060703;28;20116;-74
2022/07/17 08:05:43;;;;;;;6.18;2.50;;;22.60;52.40;;;;;;5062351;28;20132;-75
2022/07/17 08:08:09;;;;;;;9.18;2.95;;;22.90;50.80;;;;;;5060240;28;20486;-75
2022/07/17 08:10:35;;;;;;;7.30;2.90;;;22.90;51.00;;;;;;5059991;28;20322;-75
2022/07/17 08:13:01;;;;;;;10.60;2.92;;;23.00;50.70;;;;;;5061672;28;20480;-76
2022/07/17 08:15:27;;;;;;;11.95;3.47;;;23.10;51.00;;;;;;5061898;28;20051;-74
2022/07/17 08:17:53;;;;;;;6.88;2.80;;;23.20;49.10;;;;;;5057751;28;20032;-73
2022/07/17 08:20:20;;;;;;;9.25;2.67;;;23.50;49.40;;;;;;5059387;28;20033;-73
2022/07/17 08:22:47;;;;;;;6.93;2.50;;;23.70;48.40;;;;;;5061696;28;20110;-73
2022/07/17 08:25:13;;;;;;;8.23;2.55;;;23.80;47.80;;;;;;5059562;28;20128;-75
2022/07/17 08:27:40;;;;;;;5.80;1.95;;;24.00;47.20;;;;;;5059939;28;20430;-75
2022/07/17 08:30:08;;;;;;;8.82;2.80;;;24.20;47.40;;;;;;5060499;28;20032;-75
2022/07/17 08:32:35;;;;;;;8.65;2.13;;;24.60;45.40;;;;;;5060091;28;20519;-75
2022/07/17 08:35:01;;;;;;;6.88;2.20;;;24.60;45.10;;;;;;5060466;28;20074;-75
2022/07/17 08:37:27;;;;;;;8.02;2.83;;;24.00;47.40;;;;;;5060098;28;20032;-76
2022/07/17 08:39:53;;;;;;;5.78;1.90;;;24.40;46.80;;;;;;5060516;28;20036;-76
2022/07/17 08:42:18;;;;;;;5.90;1.90;;;24.60;45.80;;;;;;5060842;28;20040;-77
2022/07/17 08:44:46;;;;;;;7.00;2.10;;;24.50;46.00;;;;;;5058287;28;20075;-77
2022/07/17 08:47:13;;;;;;;6.35;1.95;;;24.60;44.90;;;;;;5061465;28;20046;-76
2022/07/17 08:49:44;;;;;;;6.95;2.83;;;24.60;44.90;;;;;;5058941;28;20056;-74
2022/07/17 08:52:13;;;;;;;6.70;2.42;;;24.60;45.40;;;;;;5061897;28;20596;-80
2022/07/17 08:54:40;;;;;;;6.95;1.80;;;25.00;45.00;;;;;;5061881;28;20059;-78
2022/07/17 08:57:06;;;;;;;7.50;2.50;;;25.30;44.50;;;;;;5061008;28;20123;-75
2022/07/17 08:59:32;;;;;;;7.68;1.83;;;25.40;42.60;;;;;;5059434;28;20392;-74
2022/07/17 09:01:59;;;;;;;8.38;2.10;;;25.20;43.00;;;;;;5054354;28;21807;-75
2022/07/17 09:04:25;;;;;;;7.90;2.25;;;25.00;42.80;;;;;;5055749;28;20284;-74
2022/07/17 09:07:02;;;;;;;8.90;2.25;;;24.60;44.20;;;;;;5058102;28;20494;-73
2022/07/17 09:09:30;;;;;;;5.55;1.77;;;24.10;45.40;;;;;;5055103;28;20109;-74
2022/07/17 09:11:58;;;;;;;8.18;2.05;;;24.50;46.00;;;;;;5058873;28;20049;-74
2022/07/17 09:14:24;;;;;;;5.43;1.88;;;24.50;45.70;;;;;;5059607;28;20045;-76
2022/07/17 09:16:51;;;;;;;6.78;1.92;;;24.40;46.50;;;;;;5063029;28;20035;-74
2022/07/17 09:19:27;;;;;;;6.40;1.73;;;24.60;45.40;;;;;;5055970;28;20780;-75
2022/07/17 09:22:08;;;;;;;7.75;2.13;;;25.00;43.70;;;;;;5056646;28;20380;-78
2022/07/17 09:24:57;;;;;;;7.15;2.30;;;25.10;44.00;;;;;;5059387;28;20139;-75
2022/07/17 09:27:31;;;;;;;6.03;1.65;;;25.20;42.30;;;;;;5057370;28;20502;-74
2022/07/17 09:30:01;;;;;;;6.00;1.67;;;25.40;43.10;;;;;;5051510;28;20035;-76
2022/07/17 09:32:45;;;;;;;6.88;1.80;;;25.50;43.40;;;;;;5030016;28;20079;-75
2022/07/17 09:35:11;;;;;;;8.10;2.22;;;25.70;42.20;;;;;;5053555;28;20032;-75
2022/07/17 09:37:38;;;;;;;7.13;2.45;;;26.00;41.10;;;;;;5063330;28;20035;-76
2022/07/17 09:41:09;;;;;;;5.20;1.73;;;26.00;40.80;;;;;;5062521;28;20135;-75
2022/07/17 09:42:57;;;;;;;5.53;1.80;;;26.10;41.10;;;;;;5059990;28;20029;-75
2022/07/17 09:45:30;;;;;;;6.00;2.00;;;26.20;40.20;;;;;;5065817;28;20135;-75
2022/07/17 09:47:56;;;;;;;7.63;2.30;;;26.20;40.70;;;;;;5065644;28;20153;-75
2022/07/17 09:50:23;;;;;;;5.78;2.15;;;26.20;39.70;;;;;;5059299;28;20036;-74
2022/07/17 09:52:55;;;;;;;10.13;2.85;;;26.40;40.20;;;;;;5065892;28;20029;-75
2022/07/17 09:55:21;;;;;;;5.75;2.08;;;26.50;40.70;;;;;;5059841;28;20321;-75
2022/07/17 09:57:48;;;;;;;7.72;2.30;;;26.70;40.00;;;;;;5064382;28;20029;-74
2022/07/17 10:00:16;;;;;;;6.50;2.28;;;26.70;40.50;;;;;;5059182;28;20178;-75
2022/07/17 10:02:45;;;;;;;6.82;3.00;;;26.70;39.60;;;;;;5064649;28;20478;-75
2022/07/17 10:05:15;;;;;;;7.63;2.45;;;26.90;40.50;;;;;;5056265;28;20070;-75
2022/07/17 10:07:41;;;;;;;7.40;2.60;;;27.00;39.60;;;;;;5057817;28;20025;-74
2022/07/17 10:10:11;;;;;;;7.75;2.58;;;27.20;38.60;;;;;;5062918;28;20154;-74
2022/07/17 10:12:38;;;;;;;6.70;2.13;;;27.30;39.00;;;;;;5063618;28;20111;-72
2022/07/17 10:15:04;;;;;;;6.32;1.95;;;27.10;38.70;;;;;;5061552;28;20544;-73
2022/07/17 10:17:30;;;;;;;7.65;2.67;;;27.10;37.70;;;;;;5066735;28;20036;-72
2022/07/17 10:19:57;;;;;;;7.22;2.15;;;26.90;37.70;;;;;;5060694;28;20036;-72
2022/07/17 10:22:23;;;;;;;6.85;2.38;;;26.90;38.10;;;;;;5062966;28;20123;-73
2022/07/17 10:25:04;;;;;;;7.57;2.67;;;26.70;38.90;;;;;;5058293;28;20454;-72
2022/07/17 10:27:30;;;;;;;5.70;2.22;;;27.10;38.70;;;;;;5069408;28;20032;-73
2022/07/17 10:30:09;;;;;;;6.78;2.10;;;27.30;38.10;;;;;;5063970;28;20142;-72
2022/07/17 10:32:35;;;;;;;5.55;2.40;;;27.40;38.10;;;;;;5060594;28;20036;-72
2022/07/17 10:35:06;;;;;;;7.05;2.58;;;27.50;37.80;;;;;;5062736;28;20049;-72
2022/07/17 10:37:37;;;;;;;7.10;2.63;;;27.40;37.10;;;;;;5061217;28;20037;-73
2022/07/17 10:40:19;;;;;;;5.90;2.40;;;27.70;36.80;;;;;;5064975;28;20063;-73
2022/07/17 10:42:49;;;;;;;7.10;2.70;;;27.80;36.50;;;;;;5062427;28;20041;-72
2022/07/17 10:45:20;;;;;;;8.32;2.40;;;27.90;36.30;;;;;;5058967;28;20559;-74
2022/07/17 10:48:04;;;;;;;6.38;2.38;;;27.70;36.30;;;;;;5063086;28;20565;-75
2022/07/17 10:50:40;;;;;;;5.75;2.70;;;27.30;36.90;;;;;;5065976;28;20077;-74
2022/07/17 10:53:10;;;;;;;8.35;2.78;;;27.00;38.40;;;;;;5064452;28;20041;-75
2022/07/17 10:55:41;;;;;;;8.15;3.20;;;27.50;36.80;;;;;;5066428;28;20049;-74
2022/07/17 10:58:19;;;;;;;6.78;2.17;;;26.90;37.60;;;;;;5066744;28;20040;-74
2022/07/17 11:01:06;;;;;;;4.57;2.50;;;26.90;38.00;;;;;;5055006;28;20755;-73
2022/07/17 11:03:49;;;;;;;7.10;2.53;;;27.30;36.60;;;;;;5062542;28;20033;-74
2022/07/17 11:06:16;;;;;;;7.33;3.30;;;27.50;35.80;;;;;;5063848;28;20095;-73
2022/07/17 11:08:45;;;;;;;6.75;3.20;;;27.50;34.20;;;;;;5064410;28;20063;-73
2022/07/17 11:11:11;;;;;;;7.22;2.90;;;27.40;35.20;;;;;;5059575;28;20100;-73
2022/07/17 11:13:36;;;;;;;7.18;2.97;;;27.10;36.30;;;;;;5064053;28;20082;-73
2022/07/17 11:16:02;;;;;;;5.47;2.63;;;27.20;36.50;;;;;;5064574;28;20048;-74
2022/07/17 11:18:29;;;;;;;8.30;3.08;;;27.50;36.40;;;;;;5066588;28;20075;-73
2022/07/17 11:20:59;;;;;;;6.32;3.28;;;27.80;35.90;;;;;;5063435;28;20043;-74
2022/07/17 11:23:28;;;;;;;7.43;3.72;;;28.20;34.20;;;;;;5059381;28;20471;-73
2022/07/17 11:26:07;;;;;;;7.60;4.03;;;27.70;33.90;;;;;;5066503;28;20052;-74
2022/07/17 11:28:34;;;;;;;6.78;2.75;;;28.00;34.70;;;;;;5070044;28;20094;-73
2022/07/17 11:31:02;;;;;;;7.28;3.10;;;27.50;35.70;;;;;;5063670;28;20665;-74
2022/07/17 11:33:27;;;;;;;7.18;3.65;;;27.70;35.70;;;;;;5063756;28;20036;-73
2022/07/17 11:35:56;;;;;;;7.35;3.50;;;27.90;34.60;;;;;;5068818;28;20043;-74
2022/07/17 11:38:27;;;;;;;6.70;3.45;;;28.00;34.70;;;;;;5060151;28;20032;-74
2022/07/17 11:40:53;;;;;;;12.02;6.10;;;28.30;34.30;;;;;;5052291;28;20037;-73
2022/07/17 11:43:19;;;;;;;6.80;3.50;;;28.60;34.30;;;;;;5060726;28;20047;-73
2022/07/17 11:45:45;;;;;;;7.35;3.47;;;28.50;33.80;;;;;;5067406;28;20570;-73
2022/07/17 11:48:11;;;;;;;8.18;3.42;;;28.20;34.20;;;;;;5060350;28;20250;-74
2022/07/17 11:50:37;;;;;;;9.15;4.32;;;28.30;32.90;;;;;;5061876;28;20044;-73
2022/07/17 11:53:05;;;;;;;8.98;4.82;;;28.70;32.00;;;;;;5067137;28;20028;-74
2022/07/17 11:55:38;;;;;;;9.52;4.72;;;27.80;31.30;;;;;;5060283;28;20048;-73
2022/07/17 11:58:04;;;;;;;7.53;3.97;;;28.00;32.40;;;;;;5060963;28;20104;-73
2022/07/17 12:00:30;;;;;;;8.60;3.72;;;28.00;33.00;;;;;;5062832;28;21280;-73
2022/07/17 12:03:04;;;;;;;7.25;3.67;;;28.20;33.80;;;;;;5064503;28;20024;-72
2022/07/17 12:05:32;;;;;;;8.80;4.68;;;28.60;33.90;;;;;;5065900;28;20052;-75
2022/07/17 12:07:58;;;;;;;9.05;4.47;;;28.90;34.20;;;;;;5061155;28;20115;-72
2022/07/17 12:10:28;;;;;;;9.52;4.13;;;29.20;33.80;;;;;;5059071;28;20044;-73
2022/07/17 12:12:56;;;;;;;8.80;3.97;;;28.20;33.30;;;;;;5061031;28;20470;-72
2022/07/17 12:15:34;;;;;;;7.43;4.05;;;28.10;34.20;;;;;;5062035;28;20480;-72
2022/07/17 12:17:59;;;;;;;7.13;3.90;;;28.50;33.50;;;;;;5058998;28;20029;-73
2022/07/17 12:20:25;;;;;;;9.18;4.70;;;28.70;33.40;;;;;;5063467;28;20029;-74
2022/07/17 12:22:51;;;;;;;7.80;4.03;;;28.90;33.00;;;;;;5061391;28;20135;-73
2022/07/17 12:25:25;;;;;;;8.32;4.50;;;28.40;32.20;;;;;;5067356;28;20127;-74
2022/07/17 12:27:51;;;;;;;7.97;4.75;;;28.50;32.50;;;;;;5059824;28;20479;-72
2022/07/17 12:30:17;;;;;;;8.57;4.50;;;28.80;30.70;;;;;;5065367;28;20112;-72
2022/07/17 12:32:42;;;;;;;7.88;4.00;;;28.80;31.80;;;;;;5059651;28;20127;-73
2022/07/17 12:35:09;;;;;;;7.68;4.22;;;28.80;33.30;;;;;;5063971;28;20045;-72
2022/07/17 12:37:34;;;;;;;8.05;4.00;;;29.20;32.50;;;;;;5062853;28;20549;-71
2022/07/17 12:40:00;;;;;;;8.05;3.97;;;29.30;32.50;;;;;;5062338;28;20045;-72
2022/07/17 12:42:26;;;;;;;8.05;3.80;;;29.60;32.20;;;;;;5053060;28;20033;-72